createdAt,value
2022-09-15T00:01:45.954Z,16.93
2022-09-15T00:04:52.141Z,16.89
2022-09-15T00:07:59.200Z,16.88
2022-09-15T00:11:12.950Z,16.85
2022-09-15T00:14:19.948Z,16.84
2022-09-15T00:17:25.835Z,16.85
2022-09-15T00:20:32.941Z,16.86
2022-09-15T00:23:39.909Z,16.87
2022-09-15T00:26:49.634Z,16.94
2022-09-15T00:29:55.683Z,16.98
2022-09-15T00:33:03.992Z,16.97
2022-09-15T00:36:14.521Z,17.03
2022-09-15T00:39:21.878Z,17.05
2022-09-15T00:42:31.192Z,17.10
2022-09-15T00:45:38.234Z,17.06
2022-09-15T00:48:49.070Z,17.04
2022-09-15T00:52:03.572Z,17.06
2022-09-15T00:55:12.608Z,17.08
2022-09-15T00:58:29.049Z,17.08
2022-09-15T01:01:36.053Z,17.08
2022-09-15T01:04:43.392Z,17.09
2022-09-15T01:07:52.698Z,17.08
2022-09-15T01:10:59.925Z,17.03
2022-09-15T01:14:11.430Z,17.04
2022-09-15T01:17:30.023Z,17.06
2022-09-15T01:20:59.502Z,17.06
2022-09-15T01:24:45.297Z,17.06
2022-09-15T01:28:33.024Z,17.09
2022-09-15T01:32:00.275Z,17.09
2022-09-15T01:35:17.994Z,17.06
2022-09-15T01:38:31.290Z,17.09
2022-09-15T01:41:43.342Z,17.09
2022-09-15T01:44:55.273Z,17.08
2022-09-15T01:48:07.730Z,17.03
2022-09-15T01:51:14.974Z,17.00
2022-09-15T01:54:26.342Z,16.99
2022-09-15T01:57:33.668Z,16.94
2022-09-15T02:00:45.134Z,16.91
2022-09-15T02:04:00.676Z,16.89
2022-09-15T02:07:14.997Z,16.86
2022-09-15T02:10:30.129Z,16.88
2022-09-15T02:13:45.566Z,16.89
2022-09-15T02:16:56.615Z,16.90
2022-09-15T02:20:16.379Z,16.89
2022-09-15T02:23:29.082Z,16.87
2022-09-15T02:26:38.660Z,16.84
2022-09-15T02:29:50.622Z,16.87
2022-09-15T02:33:00.432Z,16.88
2022-09-15T02:36:13.517Z,16.89
2022-09-15T02:39:24.391Z,16.91
2022-09-15T02:42:33.244Z,16.91
2022-09-15T02:45:39.407Z,16.92
2022-09-15T02:48:46.876Z,16.93
2022-09-15T02:51:56.067Z,16.94
2022-09-15T02:55:03.470Z,16.96
2022-09-15T02:58:10.033Z,16.97
2022-09-15T03:01:18.644Z,17.00
2022-09-15T03:04:24.615Z,17.07
2022-09-15T03:07:34.442Z,17.11
2022-09-15T03:10:40.600Z,17.16
2022-09-15T03:13:47.561Z,17.19
2022-09-15T03:16:54.331Z,17.22
2022-09-15T03:20:01.197Z,17.26
2022-09-15T03:23:11.310Z,17.28
2022-09-15T03:26:18.467Z,17.27
2022-09-15T03:29:24.254Z,17.28
2022-09-15T03:32:31.175Z,17.27
2022-09-15T03:35:36.985Z,17.29
2022-09-15T03:38:46.676Z,17.30
2022-09-15T03:41:52.499Z,17.29
2022-09-15T03:44:59.454Z,17.30
2022-09-15T03:48:06.029Z,17.29
2022-09-15T03:51:14.039Z,17.27
2022-09-15T03:54:22.889Z,17.26
2022-09-15T03:57:29.501Z,17.24
2022-09-15T04:00:35.369Z,17.25
2022-09-15T04:03:48.873Z,17.26
2022-09-15T04:06:56.566Z,17.25
2022-09-15T04:10:06.720Z,17.29
2022-09-15T04:13:12.816Z,17.31
2022-09-15T04:16:23.509Z,17.29
2022-09-15T04:19:29.821Z,17.33
2022-09-15T04:22:36.906Z,17.34
2022-09-15T04:25:46.020Z,17.34
2022-09-15T04:28:53.529Z,17.31
2022-09-15T04:31:59.838Z,17.31
2022-09-15T04:35:09.569Z,17.31
2022-09-15T04:38:15.770Z,17.31
2022-09-15T04:41:26.498Z,17.36
2022-09-15T04:44:32.875Z,17.39
2022-09-15T04:47:39.994Z,17.44
2022-09-15T04:50:46.342Z,17.48
2022-09-15T04:53:53.816Z,17.47
2022-09-15T04:57:04.813Z,17.50
2022-09-15T05:00:16.629Z,17.50
2022-09-15T05:03:22.812Z,17.50
2022-09-15T05:06:31.241Z,17.48
2022-09-15T05:09:37.474Z,17.51
2022-09-15T05:12:47.142Z,17.56
2022-09-15T05:15:53.253Z,17.58
2022-09-15T05:19:03.704Z,17.62
2022-09-15T05:22:09.832Z,17.64
2022-09-15T05:25:16.887Z,17.68
2022-09-15T05:28:25.891Z,17.70
2022-09-15T05:31:35.359Z,17.70
2022-09-15T05:34:41.738Z,17.73
2022-09-15T05:37:48.678Z,17.76
2022-09-15T05:40:54.985Z,17.79
2022-09-15T05:44:06.693Z,17.84
2022-09-15T05:47:13.681Z,17.82
2022-09-15T05:50:20.504Z,17.77
2022-09-15T05:53:27.530Z,17.71
2022-09-15T05:56:34.269Z,17.69
2022-09-15T05:59:44.172Z,17.55
2022-09-15T06:02:51.002Z,17.21
2022-09-15T06:06:03.351Z,16.84
2022-09-15T06:09:10.320Z,16.47
2022-09-15T06:12:18.238Z,16.22
2022-09-15T06:15:28.310Z,16.09
2022-09-15T06:18:34.225Z,15.97
2022-09-15T06:21:41.267Z,15.82
2022-09-15T06:24:47.144Z,15.77
2022-09-15T06:27:54.543Z,15.77
2022-09-15T06:31:03.295Z,15.69
2022-09-15T06:34:11.578Z,15.55
2022-09-15T06:37:18.156Z,15.46
2022-09-15T06:40:25.249Z,15.46
2022-09-15T06:43:31.213Z,15.44
2022-09-15T06:46:41.131Z,15.53
2022-09-15T06:49:47.257Z,15.55
2022-09-15T06:52:54.208Z,15.57
2022-09-15T06:56:06.818Z,15.52
2022-09-15T06:59:15.116Z,15.53
2022-09-15T07:02:23.855Z,15.55
2022-09-15T07:05:31.637Z,15.56
2022-09-15T07:08:37.717Z,15.60
2022-09-15T07:11:45.195Z,15.65
2022-09-15T07:14:50.994Z,15.66
2022-09-15T07:18:03.378Z,15.66
2022-09-15T07:21:13.609Z,15.70
2022-09-15T07:24:20.604Z,15.74
2022-09-15T07:27:31.713Z,15.84
2022-09-15T07:30:39.552Z,15.90
2022-09-15T07:33:48.944Z,15.98
2022-09-15T07:36:55.685Z,16.09
2022-09-15T07:40:03.702Z,16.25
2022-09-15T07:43:10.632Z,16.39
2022-09-15T07:46:16.744Z,16.44
2022-09-15T07:49:26.301Z,16.52
2022-09-15T07:52:32.077Z,16.52
2022-09-15T07:55:38.803Z,16.56
2022-09-15T07:58:44.757Z,16.64
2022-09-15T08:01:54.553Z,16.65
2022-09-15T08:05:03.542Z,16.63
2022-09-15T08:08:10.496Z,16.63
2022-09-15T08:11:19.621Z,16.67
2022-09-15T08:14:26.568Z,16.70
2022-09-15T08:17:32.669Z,16.73
2022-09-15T08:20:45.091Z,16.74
2022-09-15T08:23:56.324Z,16.77
2022-09-15T08:27:03.303Z,16.80
2022-09-15T08:30:10.744Z,16.86
2022-09-15T08:33:17.794Z,16.81
2022-09-15T08:36:28.316Z,16.80
2022-09-15T08:39:35.565Z,16.82
2022-09-15T08:42:45.054Z,16.80
2022-09-15T08:46:03.406Z,16.83
2022-09-15T08:49:26.874Z,16.77
2022-09-15T08:52:49.029Z,16.76
2022-09-15T08:55:57.900Z,16.80
2022-09-15T08:59:06.553Z,16.83
2022-09-15T09:02:42.916Z,16.89
2022-09-15T09:06:01.011Z,16.97
2022-09-15T09:09:30.900Z,17.13
2022-09-15T09:12:49.751Z,17.05
2022-09-15T09:16:11.475Z,17.00
2022-09-15T09:20:00.804Z,17.01
2022-09-15T09:23:16.617Z,17.15
2022-09-15T09:26:26.218Z,17.27
2022-09-15T09:29:37.306Z,17.41
2022-09-15T09:32:50.058Z,17.57
2022-09-15T09:35:57.065Z,17.61
2022-09-15T09:39:06.687Z,17.69
2022-09-15T09:42:18.827Z,17.88
2022-09-15T09:45:26.686Z,18.00
2022-09-15T09:48:33.231Z,18.21
2022-09-15T09:51:41.800Z,18.46
2022-09-15T09:54:47.736Z,18.51
2022-09-15T09:57:57.786Z,18.65
2022-09-15T10:01:13.116Z,18.61
2022-09-15T10:04:22.361Z,18.51
2022-09-15T10:07:29.970Z,18.54
2022-09-15T10:10:36.899Z,18.59
2022-09-15T10:13:57.775Z,18.98
2022-09-15T10:17:09.372Z,19.08
2022-09-15T10:20:28.909Z,19.08
2022-09-15T10:23:37.254Z,18.97
2022-09-15T10:26:44.890Z,18.99
2022-09-15T10:29:54.935Z,19.13
2022-09-15T10:33:21.786Z,19.22
2022-09-15T10:36:33.243Z,19.32
2022-09-15T10:39:51.436Z,19.11
2022-09-15T10:43:06.659Z,18.85
2022-09-15T10:46:19.892Z,18.58
2022-09-15T10:49:37.451Z,18.39
2022-09-15T10:53:01.319Z,18.13
2022-09-15T10:56:20.254Z,17.89
2022-09-15T10:59:48.697Z,17.69
2022-09-15T11:03:17.131Z,17.73
2022-09-15T11:06:32.015Z,17.78
2022-09-15T11:09:46.921Z,17.84
2022-09-15T11:13:06.355Z,17.95
2022-09-15T11:16:30.434Z,18.03
2022-09-15T11:19:56.191Z,18.15
2022-09-15T11:23:13.021Z,18.29
2022-09-15T11:26:25.104Z,18.44
2022-09-15T11:29:37.293Z,18.44
2022-09-15T11:32:48.173Z,18.51
2022-09-15T11:36:07.870Z,18.88
2022-09-15T11:39:19.888Z,18.82
2022-09-15T11:42:33.905Z,18.54
2022-09-15T11:45:45.625Z,18.29
2022-09-15T11:48:59.361Z,17.97
2022-09-15T11:52:18.474Z,17.72
2022-09-15T11:55:30.582Z,17.57
2022-09-15T11:58:59.758Z,17.45
2022-09-15T12:02:20.443Z,17.39
2022-09-15T12:05:33.355Z,17.42
2022-09-15T12:08:46.113Z,17.43
2022-09-15T12:11:55.380Z,17.43
2022-09-15T12:15:03.626Z,17.38
2022-09-15T12:18:37.738Z,17.37
2022-09-15T12:21:54.047Z,17.43
2022-09-15T12:25:07.096Z,17.40
2022-09-15T12:28:40.675Z,17.31
2022-09-15T12:31:49.330Z,17.23
2022-09-15T12:35:10.143Z,17.20
2022-09-15T12:38:19.433Z,17.11
2022-09-15T12:41:30.779Z,17.08
2022-09-15T12:44:40.735Z,16.98
2022-09-15T12:47:57.316Z,16.85
2022-09-15T12:51:09.512Z,16.68
2022-09-15T12:54:26.103Z,16.61
2022-09-15T12:57:39.039Z,16.58
2022-09-15T13:01:16.655Z,16.53
2022-09-15T13:04:53.698Z,16.47
2022-09-15T13:08:01.178Z,16.37
2022-09-15T13:11:12.009Z,16.40
2022-09-15T13:14:28.880Z,16.49
2022-09-15T13:17:36.823Z,16.60
2022-09-15T13:20:51.815Z,16.72
2022-09-15T13:23:58.851Z,16.85
2022-09-15T13:27:10.010Z,16.80
2022-09-15T13:30:36.593Z,16.75
2022-09-15T13:38:20.017Z,16.50
2022-09-15T13:41:53.766Z,16.51
2022-09-15T13:45:24.979Z,16.45
2022-09-15T13:48:59.365Z,16.37
2022-09-15T13:52:22.884Z,16.31
2022-09-15T13:55:32.952Z,16.23
2022-09-15T13:58:59.190Z,16.18
2022-09-15T14:02:13.086Z,16.09
2022-09-15T14:05:24.295Z,16.08
2022-09-15T14:08:35.231Z,16.10
2022-09-15T14:11:42.253Z,16.10
2022-09-15T14:14:54.995Z,16.12
2022-09-15T14:18:01.186Z,16.09
2022-09-15T14:21:20.225Z,16.04
2022-09-15T14:24:30.409Z,16.07
2022-09-15T14:27:39.507Z,16.10
2022-09-15T14:30:51.184Z,16.11
2022-09-15T14:33:57.974Z,16.11
2022-09-15T14:37:09.662Z,16.12
2022-09-15T14:40:23.801Z,16.09
2022-09-15T14:43:31.487Z,16.09
2022-09-15T14:46:41.514Z,16.11
2022-09-15T14:49:47.319Z,16.14
2022-09-15T14:53:06.368Z,16.18
2022-09-15T14:56:16.014Z,16.21
2022-09-15T14:59:28.884Z,16.23
2022-09-15T15:02:51.959Z,16.17
2022-09-15T15:06:25.348Z,16.16
2022-09-15T15:09:35.506Z,16.12
2022-09-15T15:12:45.590Z,16.00
2022-09-15T15:15:52.032Z,15.86
2022-09-15T15:18:59.270Z,15.75
2022-09-15T15:22:19.251Z,15.68
2022-09-15T15:25:32.948Z,15.62
2022-09-15T15:28:40.405Z,15.55
2022-09-15T15:31:47.307Z,15.53
2022-09-15T15:34:55.904Z,15.54
2022-09-15T15:38:06.596Z,15.62
2022-09-15T15:41:23.285Z,15.68
2022-09-15T15:44:32.597Z,15.63
2022-09-15T15:47:39.925Z,15.60
2022-09-15T15:50:46.995Z,15.57
2022-09-15T15:53:52.980Z,15.51
2022-09-15T15:57:23.308Z,15.52
2022-09-15T16:00:32.801Z,15.51
2022-09-15T16:03:39.642Z,15.57
2022-09-15T16:06:48.518Z,15.61
2022-09-15T16:09:55.773Z,15.60
2022-09-15T16:13:06.970Z,15.55
2022-09-15T16:16:18.363Z,15.50
2022-09-15T16:19:25.086Z,15.49
2022-09-15T16:22:32.378Z,15.56
2022-09-15T16:25:42.696Z,15.57
2022-09-15T16:28:53.138Z,15.56
2022-09-15T16:31:59.702Z,15.56
2022-09-15T16:35:21.407Z,15.56
2022-09-15T16:38:28.802Z,15.52
2022-09-15T16:41:39.229Z,15.48
2022-09-15T16:44:48.417Z,15.42
2022-09-15T16:47:55.302Z,15.33
2022-09-15T16:51:20.927Z,15.25
2022-09-15T16:54:28.182Z,15.19
2022-09-15T16:57:34.882Z,15.20
2022-09-15T17:00:45.964Z,15.21
2022-09-15T17:03:52.516Z,15.13
2022-09-15T17:06:59.694Z,15.10
2022-09-15T17:10:09.868Z,15.10
2022-09-15T17:13:19.649Z,15.09
2022-09-15T17:16:28.417Z,15.03
2022-09-15T17:19:35.468Z,14.99
2022-09-15T17:22:41.360Z,14.93
2022-09-15T17:25:52.944Z,14.87
2022-09-15T17:28:58.960Z,14.86
2022-09-15T17:32:11.911Z,14.87
2022-09-15T17:35:24.943Z,14.86
2022-09-15T17:38:32.143Z,14.87
2022-09-15T17:41:38.970Z,14.89
2022-09-15T17:44:45.845Z,14.89
2022-09-15T17:47:55.777Z,14.92
2022-09-15T17:51:03.349Z,14.94
2022-09-15T17:54:13.588Z,14.94
2022-09-15T17:57:20.556Z,14.91
2022-09-15T18:00:28.292Z,14.88
2022-09-15T18:03:40.187Z,14.90
2022-09-15T18:06:46.252Z,14.91
2022-09-15T18:09:53.174Z,14.94
2022-09-15T18:13:00.090Z,14.94
2022-09-15T18:16:10.649Z,14.91
2022-09-15T18:19:19.625Z,14.90
2022-09-15T18:22:26.889Z,14.90
2022-09-15T18:25:34.837Z,14.86
2022-09-15T18:28:41.681Z,14.78
2022-09-15T18:31:47.806Z,14.73
2022-09-15T18:34:57.634Z,14.72
2022-09-15T18:38:04.153Z,14.72
2022-09-15T18:41:13.623Z,14.69
2022-09-15T18:44:20.079Z,14.63
2022-09-15T18:47:27.087Z,14.57
2022-09-15T18:50:36.030Z,14.54
2022-09-15T18:53:43.166Z,14.51
2022-09-15T18:56:49.402Z,14.52
2022-09-15T18:59:56.387Z,14.53
2022-09-15T19:03:06.629Z,14.58
2022-09-15T19:06:16.539Z,14.62
2022-09-15T19:09:22.834Z,14.60
2022-09-15T19:12:29.681Z,14.60
2022-09-15T19:15:36.615Z,14.60
2022-09-15T19:18:45.157Z,14.56
2022-09-15T19:21:54.228Z,14.57
2022-09-15T19:25:03.721Z,14.59
2022-09-15T19:28:10.266Z,14.60
2022-09-15T19:31:17.426Z,14.57
2022-09-15T19:34:24.279Z,14.53
2022-09-15T19:37:34.236Z,14.52
2022-09-15T19:40:40.285Z,14.52
2022-09-15T19:43:47.396Z,14.52
2022-09-15T19:46:53.723Z,14.57
2022-09-15T19:50:00.774Z,14.58
2022-09-15T19:53:11.287Z,14.56
2022-09-15T19:56:22.443Z,14.51
2022-09-15T19:59:31.304Z,14.44
2022-09-15T20:07:23.728Z,14.32
2022-09-15T20:10:35.335Z,14.30
2022-09-15T20:13:44.390Z,14.28
2022-09-15T20:16:54.186Z,14.31
2022-09-15T20:20:03.843Z,14.30
2022-09-15T20:23:12.411Z,14.26
2022-09-15T20:26:22.684Z,14.23
2022-09-15T20:29:31.180Z,14.18
2022-09-15T20:32:38.791Z,14.12
2022-09-15T20:35:47.129Z,14.08
2022-09-15T20:38:54.854Z,14.06
2022-09-15T20:42:06.792Z,14.05
2022-09-15T20:45:14.560Z,14.02
2022-09-15T20:48:22.882Z,14.01
2022-09-15T20:51:32.604Z,14.00
2022-09-15T20:54:40.974Z,14.02
2022-09-15T20:57:51.609Z,14.02
2022-09-15T21:01:08.109Z,14.02
2022-09-15T21:04:15.496Z,13.95
2022-09-15T21:07:23.632Z,13.88
2022-09-15T21:10:31.588Z,13.84
2022-09-15T21:13:44.008Z,13.82
2022-09-15T21:16:51.269Z,13.79
2022-09-15T21:19:59.082Z,13.76
2022-09-15T21:23:07.765Z,13.72
2022-09-15T21:26:18.533Z,13.72
2022-09-15T21:29:29.128Z,13.67
2022-09-15T21:32:36.865Z,13.64
2022-09-15T21:35:45.216Z,13.61
2022-09-15T21:38:56.811Z,13.59
2022-09-15T21:42:03.777Z,13.56
2022-09-15T21:45:15.572Z,13.53
2022-09-15T21:48:22.589Z,13.51
2022-09-15T21:51:33.722Z,13.49
2022-09-15T21:54:41.256Z,13.48
2022-09-15T21:57:50.081Z,13.50
2022-09-15T22:01:00.576Z,13.53
2022-09-15T22:04:11.721Z,13.54
2022-09-15T22:07:20.193Z,13.55
2022-09-15T22:10:28.685Z,13.53
2022-09-15T22:13:37.196Z,13.51
2022-09-15T22:16:48.247Z,13.50
2022-09-15T22:19:55.527Z,13.49
2022-09-15T22:23:05.172Z,13.48
2022-09-15T22:26:14.280Z,13.54
2022-09-15T22:29:21.291Z,13.55
2022-09-15T22:32:31.351Z,13.54
2022-09-15T22:35:38.526Z,13.52
2022-09-15T22:38:46.490Z,13.53
2022-09-15T22:41:55.213Z,13.56
2022-09-15T22:45:03.325Z,13.55
2022-09-15T22:48:14.543Z,13.53
2022-09-15T22:51:22.763Z,13.53
2022-09-15T22:54:32.627Z,13.53
2022-09-15T22:57:40.168Z,13.57
2022-09-15T23:00:48.028Z,13.57
2022-09-15T23:03:59.029Z,13.55
2022-09-15T23:07:06.362Z,13.54
2022-09-15T23:10:12.160Z,13.53
2022-09-15T23:13:18.461Z,13.53
2022-09-15T23:16:25.262Z,13.55
2022-09-15T23:19:34.697Z,13.60
2022-09-15T23:22:40.940Z,13.56
2022-09-15T23:25:47.862Z,13.53
2022-09-15T23:28:54.052Z,13.52
2022-09-15T23:32:00.698Z,13.49
2022-09-15T23:35:11.363Z,13.54
2022-09-15T23:38:18.274Z,13.52
2022-09-15T23:41:24.916Z,13.49
2022-09-15T23:44:31.651Z,13.46
2022-09-15T23:47:38.096Z,13.46
2022-09-15T23:50:47.847Z,13.44
2022-09-15T23:53:53.796Z,13.42
2022-09-15T23:57:01.002Z,13.40
